createdAt,value
2018-12-10T00:01:18.866Z,3.20
2018-12-10T00:03:45.723Z,2.80
2018-12-10T00:06:12.199Z,2.40
2018-12-10T00:08:38.687Z,3.30
2018-12-10T00:11:05.238Z,2.90
2018-12-10T00:13:31.764Z,2.77
2018-12-10T00:15:58.447Z,2.50
2018-12-10T00:18:24.935Z,2.47
2018-12-10T00:20:51.420Z,3.20
2018-12-10T00:23:18.155Z,2.80
2018-12-10T00:25:44.615Z,3.17
2018-12-10T00:28:10.992Z,3.00
2018-12-10T00:30:37.687Z,3.20
2018-12-10T00:33:04.167Z,3.60
2018-12-10T00:35:30.759Z,3.40
2018-12-10T00:37:57.484Z,2.70
2018-12-10T00:40:23.954Z,3.40
2018-12-10T00:42:50.496Z,3.27
2018-12-10T00:45:17.143Z,3.40
2018-12-10T00:47:43.692Z,2.70
2018-12-10T00:50:10.928Z,3.50
2018-12-10T00:52:37.829Z,2.27
2018-12-10T00:55:04.275Z,2.90
2018-12-10T00:57:30.879Z,3.10
2018-12-10T00:59:57.350Z,2.90
2018-12-10T01:02:23.926Z,2.70
2018-12-10T01:04:50.330Z,2.30
2018-12-10T01:07:16.790Z,2.63
2018-12-10T01:09:43.591Z,2.47
2018-12-10T01:12:10.051Z,2.20
2018-12-10T01:14:36.867Z,2.50
2018-12-10T01:17:03.302Z,2.80
2018-12-10T01:19:29.785Z,2.23
2018-12-10T01:21:56.646Z,2.50
2018-12-10T01:24:23.117Z,2.40
2018-12-10T01:26:49.591Z,2.93
2018-12-10T01:29:16.290Z,2.40
2018-12-10T01:31:42.887Z,2.00
2018-12-10T01:34:09.528Z,2.70
2018-12-10T01:36:37.144Z,1.97
2018-12-10T01:39:04.517Z,2.57
2018-12-10T01:41:30.891Z,3.20
2018-12-10T01:43:57.430Z,2.67
2018-12-10T01:46:23.916Z,2.40
2018-12-10T01:48:50.470Z,2.00
2018-12-10T01:51:17.140Z,2.60
2018-12-10T01:53:43.863Z,3.47
2018-12-10T01:56:10.375Z,3.53
2018-12-10T01:58:37.031Z,3.47
2018-12-10T02:01:03.531Z,3.17
2018-12-10T02:03:29.979Z,3.07
2018-12-10T02:05:56.759Z,3.13
2018-12-10T02:08:23.215Z,3.23
2018-12-10T02:10:49.719Z,2.93
2018-12-10T02:13:16.239Z,4.03
2018-12-10T02:15:42.686Z,4.10
2018-12-10T02:18:09.205Z,3.23
2018-12-10T02:20:35.989Z,3.63
2018-12-10T02:23:02.475Z,2.90
2018-12-10T02:25:29.104Z,3.67
2018-12-10T02:27:55.698Z,3.10
2018-12-10T02:30:22.210Z,3.20
2018-12-10T02:32:48.756Z,2.60
2018-12-10T02:35:15.501Z,2.63
2018-12-10T02:37:41.958Z,3.33
2018-12-10T02:40:08.467Z,3.20
2018-12-10T02:42:34.991Z,3.27
2018-12-10T02:45:01.445Z,2.90
2018-12-10T02:47:27.892Z,3.20
2018-12-10T02:49:54.370Z,3.23
2018-12-10T02:52:20.944Z,3.17
2018-12-10T02:54:47.423Z,2.70
2018-12-10T02:57:14.190Z,2.70
2018-12-10T02:59:40.710Z,3.00
2018-12-10T03:02:07.296Z,3.80
2018-12-10T03:04:33.969Z,2.80
2018-12-10T03:07:00.624Z,2.70
2018-12-10T03:09:27.119Z,3.07
2018-12-10T03:11:53.584Z,3.33
2018-12-10T03:14:20.074Z,2.50
2018-12-10T03:16:46.552Z,2.33
2018-12-10T03:19:13.242Z,2.87
2018-12-10T03:21:39.677Z,2.60
2018-12-10T03:24:06.151Z,3.70
2018-12-10T03:26:32.994Z,2.57
2018-12-10T03:29:07.932Z,2.23
2018-12-10T03:31:34.436Z,2.27
2018-12-10T03:34:00.978Z,2.20
2018-12-10T03:36:27.460Z,2.90
2018-12-10T03:38:53.915Z,1.90
2018-12-10T03:41:20.419Z,2.73
2018-12-10T03:43:46.892Z,1.87
2018-12-10T03:46:13.427Z,2.33
2018-12-10T03:48:39.855Z,2.90
2018-12-10T03:51:06.320Z,2.47
2018-12-10T03:53:33.038Z,2.27
2018-12-10T03:55:59.557Z,2.20
2018-12-10T03:58:26.023Z,2.20
2018-12-10T04:00:52.539Z,2.00
2018-12-10T04:03:19.011Z,3.47
2018-12-10T04:05:45.580Z,2.30
2018-12-10T04:08:12.322Z,2.20
2018-12-10T04:10:38.852Z,2.53
2018-12-10T04:13:05.272Z,2.80
2018-12-10T04:15:31.815Z,1.97
2018-12-10T04:17:58.268Z,2.40
2018-12-10T04:20:24.724Z,2.73
2018-12-10T04:22:51.185Z,1.93
2018-12-10T04:25:17.651Z,2.30
2018-12-10T04:27:44.103Z,2.03
2018-12-10T04:30:10.767Z,2.20
2018-12-10T04:32:37.220Z,3.20
2018-12-10T04:35:03.788Z,2.00
2018-12-10T04:37:30.498Z,1.90
2018-12-10T04:39:56.956Z,2.77
2018-12-10T04:42:23.498Z,2.70
2018-12-10T04:44:49.970Z,2.23
2018-12-10T04:47:16.421Z,2.40
2018-12-10T04:49:42.895Z,2.63
2018-12-10T04:52:09.560Z,2.73
2018-12-10T04:54:35.998Z,2.50
2018-12-10T04:57:02.570Z,2.13
2018-12-10T04:59:29.030Z,2.60
2018-12-10T05:01:55.454Z,2.27
2018-12-10T05:04:21.880Z,4.07
2018-12-10T05:06:48.595Z,2.87
2018-12-10T05:09:15.030Z,5.13
2018-12-10T05:11:41.471Z,3.47
2018-12-10T05:14:07.950Z,2.60
2018-12-10T05:16:41.222Z,2.83
2018-12-10T05:19:07.898Z,2.83
2018-12-10T05:21:34.351Z,1.50
2018-12-10T05:24:00.835Z,2.20
2018-12-10T05:26:27.344Z,2.17
2018-12-10T05:28:53.770Z,2.50
2018-12-10T05:31:20.216Z,1.93
2018-12-10T05:33:46.943Z,2.83
2018-12-10T05:36:13.550Z,1.67
2018-12-10T05:38:40.090Z,2.30
2018-12-10T05:41:06.631Z,3.57
2018-12-10T05:43:33.202Z,6.30
2018-12-10T05:45:59.678Z,3.27
2018-12-10T05:48:26.350Z,6.30
2018-12-10T05:50:52.769Z,3.20
2018-12-10T05:53:19.196Z,2.80
2018-12-10T05:55:45.979Z,4.57
2018-12-10T05:58:12.439Z,2.97
2018-12-10T06:00:38.943Z,2.60
2018-12-10T06:03:05.638Z,2.60
2018-12-10T06:05:32.097Z,2.43
2018-12-10T06:07:58.553Z,1.93
2018-12-10T06:10:24.991Z,2.10
2018-12-10T06:12:51.441Z,2.97
2018-12-10T06:15:17.861Z,1.67
2018-12-10T06:17:44.549Z,2.10
2018-12-10T06:20:11.073Z,2.30
2018-12-10T06:22:37.501Z,2.70
2018-12-10T06:25:04.503Z,1.93
2018-12-10T06:27:30.942Z,2.33
2018-12-10T06:29:57.358Z,2.07
2018-12-10T06:32:23.823Z,1.77
2018-12-10T06:34:50.150Z,2.10
2018-12-10T06:37:16.565Z,2.20
2018-12-10T06:39:43.069Z,1.80
2018-12-10T06:42:09.527Z,1.63
2018-12-10T06:44:36.045Z,1.67
2018-12-10T06:47:02.561Z,2.13
2018-12-10T06:49:29.023Z,2.20
2018-12-10T06:51:55.470Z,1.30
2018-12-10T06:54:22.227Z,2.13
2018-12-10T06:56:48.666Z,1.53
2018-12-10T06:59:15.102Z,1.73
2018-12-10T07:01:41.836Z,1.80
2018-12-10T07:04:08.295Z,1.50
2018-12-10T07:06:34.747Z,1.47
2018-12-10T07:09:01.407Z,1.77
2018-12-10T07:11:27.831Z,1.20
2018-12-10T07:13:54.258Z,1.60
2018-12-10T07:16:20.836Z,1.73
2018-12-10T07:18:47.303Z,1.30
2018-12-10T07:21:13.722Z,2.13
2018-12-10T07:23:40.243Z,1.60
2018-12-10T07:26:06.696Z,1.60
2018-12-10T07:28:33.260Z,1.30
2018-12-10T07:30:59.760Z,2.73
2018-12-10T07:33:26.182Z,3.60
2018-12-10T07:35:52.624Z,4.07
2018-12-10T07:38:19.125Z,2.70
2018-12-10T07:40:45.604Z,3.17
2018-12-10T07:43:12.165Z,2.53
2018-12-10T07:45:38.633Z,3.53
2018-12-10T07:48:05.197Z,1.70
2018-12-10T07:50:31.657Z,2.10
2018-12-10T07:52:58.463Z,2.40
2018-12-10T07:55:24.886Z,2.80
2018-12-10T07:57:53.359Z,2.20
2018-12-10T08:00:20.228Z,3.10
2018-12-10T08:02:46.691Z,2.63
2018-12-10T08:05:13.126Z,3.23
2018-12-10T08:07:39.716Z,2.73
2018-12-10T08:10:06.436Z,2.57
2018-12-10T08:12:32.912Z,2.70
2018-12-10T08:15:06.486Z,2.70
2018-12-10T08:17:32.955Z,2.60
2018-12-10T08:19:59.432Z,2.10
2018-12-10T08:22:26.106Z,2.53
2018-12-10T08:24:52.538Z,2.27
2018-12-10T08:27:19.143Z,2.30
2018-12-10T08:29:45.611Z,2.77
2018-12-10T08:32:12.164Z,2.00
2018-12-10T08:34:41.486Z,2.97
2018-12-10T08:37:07.355Z,1.87
2018-12-10T08:39:33.790Z,2.30
2018-12-10T08:42:00.279Z,2.53
2018-12-10T08:44:26.983Z,1.93
2018-12-10T08:46:53.475Z,1.80
2018-12-10T08:49:19.957Z,2.23
2018-12-10T08:51:46.482Z,2.63
2018-12-10T08:54:12.923Z,2.37
2018-12-10T08:56:39.363Z,2.77
2018-12-10T08:59:05.876Z,1.50
2018-12-10T09:01:32.312Z,2.37
2018-12-10T09:03:58.785Z,2.10
2018-12-10T09:06:25.515Z,1.83
2018-12-10T09:08:52.016Z,2.20
2018-12-10T09:11:18.496Z,2.60
2018-12-10T09:13:44.989Z,1.60
2018-12-10T09:18:56.704Z,2.23
2018-12-10T09:21:23.149Z,2.30
2018-12-10T09:23:49.631Z,2.00
2018-12-10T09:26:16.428Z,2.20
2018-12-10T09:28:42.878Z,2.00
2018-12-10T09:31:09.340Z,2.23
2018-12-10T09:33:35.822Z,1.77
2018-12-10T09:36:02.241Z,2.30
2018-12-10T09:38:28.739Z,2.10
2018-12-10T09:40:55.268Z,2.87
2018-12-10T09:43:21.728Z,2.17
2018-12-10T09:45:48.203Z,2.17
2018-12-10T09:48:14.665Z,1.87
2018-12-10T09:50:41.097Z,2.00
2018-12-10T09:53:07.585Z,1.97
2018-12-10T09:55:34.319Z,1.80
2018-12-10T09:58:00.773Z,1.93
2018-12-10T10:00:27.201Z,2.03
2018-12-10T10:02:53.967Z,1.97
2018-12-10T10:05:20.393Z,3.60
2018-12-10T10:07:46.923Z,2.60
2018-12-10T10:10:13.741Z,1.60
2018-12-10T10:12:40.231Z,2.60
2018-12-10T10:15:06.711Z,2.73
2018-12-10T10:17:33.405Z,2.67
2018-12-10T10:19:59.830Z,2.00
2018-12-10T10:22:26.307Z,1.87
2018-12-10T10:24:52.780Z,2.30
2018-12-10T10:27:19.226Z,1.83
2018-12-10T10:29:45.651Z,1.73
2018-12-10T10:32:12.150Z,2.37
2018-12-10T10:34:38.612Z,2.53
2018-12-10T10:37:05.059Z,2.30
2018-12-10T10:39:31.579Z,2.40
2018-12-10T10:41:57.959Z,2.37
2018-12-10T10:44:24.444Z,2.80
2018-12-10T10:46:50.939Z,2.30
2018-12-10T10:49:17.448Z,2.03
2018-12-10T10:51:44.046Z,2.13
2018-12-10T10:54:10.577Z,2.83
2018-12-10T10:56:37.073Z,2.73
2018-12-10T10:59:03.542Z,2.10
2018-12-10T11:01:37.211Z,2.10
2018-12-10T11:04:03.712Z,2.20
2018-12-10T11:06:30.166Z,2.40
2018-12-10T11:08:56.638Z,2.67
2018-12-10T11:11:23.095Z,2.90
2018-12-10T11:13:49.567Z,2.90
2018-12-10T11:16:16.068Z,3.40
2018-12-10T11:18:42.489Z,3.67
2018-12-10T11:21:08.931Z,5.00
2018-12-10T11:23:35.709Z,3.33
2018-12-10T11:26:02.126Z,3.00
2018-12-10T11:28:28.585Z,2.50
2018-12-10T11:30:55.277Z,2.60
2018-12-10T11:33:21.707Z,3.07
2018-12-10T11:35:48.171Z,2.53
2018-12-10T11:38:15.016Z,2.60
2018-12-10T11:40:41.499Z,2.87
2018-12-10T11:43:07.950Z,2.30
2018-12-10T11:45:34.431Z,2.10
2018-12-10T11:48:00.884Z,2.20
2018-12-10T11:50:27.451Z,2.60
2018-12-10T11:52:54.180Z,1.73
2018-12-10T11:55:20.618Z,1.97
2018-12-10T11:57:47.072Z,2.30
2018-12-10T12:00:13.900Z,2.43
2018-12-10T12:02:40.526Z,2.67
2018-12-10T12:05:07.065Z,2.33
2018-12-10T12:07:33.696Z,2.10
2018-12-10T12:10:00.283Z,2.40
2018-12-10T12:12:26.755Z,1.70
2018-12-10T12:14:53.563Z,2.40
2018-12-10T12:17:20.026Z,2.37
2018-12-10T12:19:46.594Z,2.80
2018-12-10T12:22:13.055Z,3.07
2018-12-10T12:24:39.526Z,2.40
2018-12-10T12:34:05.953Z,1.70
2018-12-10T12:36:32.430Z,1.87
2018-12-10T12:38:58.938Z,2.37
2018-12-10T12:41:25.464Z,2.23
2018-12-10T12:43:51.918Z,1.83
2018-12-10T12:46:18.495Z,2.30
2018-12-10T12:48:45.380Z,2.03
2018-12-10T12:51:11.880Z,2.07
2018-12-10T12:53:38.364Z,2.10
2018-12-10T12:56:04.863Z,1.73
2018-12-10T12:58:31.433Z,1.80
2018-12-10T13:00:59.908Z,1.73
2018-12-10T13:03:26.545Z,1.73
2018-12-10T13:05:53.056Z,2.40
2018-12-10T13:08:19.526Z,2.57
2018-12-10T13:13:30.683Z,2.70
2018-12-10T13:15:57.279Z,3.47
2018-12-10T13:18:23.754Z,3.30
2018-12-10T13:20:50.544Z,2.10
2018-12-10T13:23:17.026Z,2.30
2018-12-10T13:25:43.538Z,2.20
2018-12-10T13:28:10.314Z,2.43
2018-12-10T13:30:36.853Z,2.10
2018-12-10T13:33:03.603Z,2.47
2018-12-10T13:35:30.165Z,2.23
2018-12-10T13:37:56.660Z,2.47
2018-12-10T13:40:23.098Z,2.07
2018-12-10T13:42:49.560Z,5.20
2018-12-10T13:45:16.006Z,2.00
2018-12-10T13:47:42.487Z,3.27
2018-12-10T13:50:09.178Z,2.77
2018-12-10T13:52:35.685Z,2.60
2018-12-10T13:55:02.159Z,2.90
2018-12-10T13:57:28.691Z,1.90
2018-12-10T13:59:55.156Z,2.50
2018-12-10T14:02:21.607Z,2.13
2018-12-10T14:04:49.578Z,2.70
2018-12-10T14:07:16.102Z,2.90
2018-12-10T14:09:42.671Z,2.80
2018-12-10T14:12:09.214Z,2.27
2018-12-10T14:14:35.735Z,2.10
2018-12-10T14:17:02.255Z,1.93
2018-12-10T14:19:28.899Z,2.33
2018-12-10T14:21:55.400Z,2.57
2018-12-10T14:24:21.865Z,2.70
2018-12-10T14:26:48.555Z,2.50
2018-12-10T14:29:15.019Z,2.00
2018-12-10T14:31:41.621Z,2.10
2018-12-10T14:34:14.354Z,1.57
2018-12-10T14:36:40.831Z,1.80
2018-12-10T14:39:07.950Z,2.00
2018-12-10T14:41:34.446Z,2.50
2018-12-10T14:44:00.890Z,1.73
2018-12-10T14:46:27.334Z,1.50
2018-12-10T14:48:54.252Z,1.60
2018-12-10T14:51:20.815Z,1.30
2018-12-10T14:53:47.279Z,1.33
2018-12-10T14:56:13.970Z,1.73
2018-12-10T14:58:40.521Z,1.70
2018-12-10T15:01:06.997Z,1.70
2018-12-10T15:03:33.582Z,1.70
2018-12-10T15:05:59.977Z,2.90
2018-12-10T15:08:26.552Z,2.60
2018-12-10T15:10:53.630Z,3.03
2018-12-10T15:13:20.198Z,1.77
2018-12-10T15:15:46.683Z,2.07
2018-12-10T15:18:13.477Z,2.63
2018-12-10T15:20:39.926Z,2.30
2018-12-10T15:23:06.422Z,2.80
2018-12-10T15:25:36.401Z,5.80
2018-12-10T15:28:03.028Z,4.67
2018-12-10T15:30:29.706Z,2.10
2018-12-10T15:32:56.445Z,2.30
2018-12-10T15:35:22.966Z,2.33
2018-12-10T15:37:49.342Z,3.20
2018-12-10T15:40:15.898Z,2.43
2018-12-10T15:42:42.356Z,2.73
2018-12-10T15:45:08.840Z,2.83
2018-12-10T15:47:35.366Z,3.23
2018-12-10T15:50:02.437Z,3.60
2018-12-10T15:52:28.907Z,3.20
2018-12-10T15:54:55.686Z,1.60
2018-12-10T15:57:22.179Z,2.10
2018-12-10T15:59:48.736Z,2.50
2018-12-10T16:02:15.692Z,4.00
2018-12-10T16:04:42.198Z,2.10
2018-12-10T16:07:08.706Z,2.60
2018-12-10T16:09:35.235Z,2.17
2018-12-10T16:12:01.743Z,4.90
2018-12-10T16:14:28.347Z,2.87
2018-12-10T16:16:54.848Z,2.60
2018-12-10T16:19:21.298Z,3.30
2018-12-10T16:21:47.903Z,1.83
2018-12-10T16:24:14.735Z,2.30
2018-12-10T16:26:41.211Z,2.93
2018-12-10T16:29:08.478Z,3.20
2018-12-10T16:34:31.559Z,2.37
2018-12-10T16:36:58.907Z,2.43
2018-12-10T16:39:25.467Z,1.93
2018-12-10T16:41:51.933Z,2.93
2018-12-10T16:44:18.704Z,2.40
2018-12-10T16:46:45.611Z,2.03
2018-12-10T16:49:12.098Z,2.20
2018-12-10T16:51:38.679Z,3.47
2018-12-10T16:54:05.255Z,1.93
2018-12-10T16:56:31.726Z,2.60
2018-12-10T16:58:58.463Z,2.67
2018-12-10T17:01:25.016Z,3.30
2018-12-10T17:03:51.726Z,2.70
2018-12-10T17:06:18.428Z,3.90
2018-12-10T17:08:44.949Z,3.40
2018-12-10T17:11:11.455Z,2.37
2018-12-10T17:13:37.962Z,2.07
2018-12-10T17:16:04.435Z,2.20
2018-12-10T17:18:30.973Z,2.53
2018-12-10T17:20:57.774Z,6.40
2018-12-10T17:23:24.236Z,3.30
2018-12-10T17:25:50.823Z,2.00
2018-12-10T17:28:17.546Z,3.13
2018-12-10T17:30:44.615Z,2.33
2018-12-10T17:33:11.054Z,2.60
2018-12-10T17:35:37.753Z,2.73
2018-12-10T17:38:04.191Z,2.67
2018-12-10T17:40:30.691Z,2.57
2018-12-10T17:42:57.193Z,2.37
2018-12-10T17:45:23.797Z,2.60
2018-12-10T17:47:50.243Z,6.40
2018-12-10T17:50:17.004Z,2.90
2018-12-10T17:52:43.615Z,2.00
2018-12-10T17:55:10.091Z,2.37
2018-12-10T17:57:36.606Z,2.80
2018-12-10T18:00:04.076Z,2.73
2018-12-10T18:02:30.596Z,3.20
2018-12-10T18:04:57.405Z,2.47
2018-12-10T18:07:23.947Z,6.27
2018-12-10T18:09:50.429Z,3.63
2018-12-10T18:12:17.113Z,3.90
2018-12-10T18:14:43.599Z,3.30
2018-12-10T18:17:10.058Z,3.47
2018-12-10T18:19:36.550Z,2.40
2018-12-10T18:22:03.024Z,3.83
2018-12-10T18:24:29.511Z,2.43
2018-12-10T18:26:55.987Z,3.37
2018-12-10T18:29:22.451Z,2.60
2018-12-10T18:31:48.882Z,3.33
2018-12-10T18:34:15.690Z,2.80
2018-12-10T18:36:42.220Z,2.43
2018-12-10T18:39:08.811Z,2.47
2018-12-10T18:41:35.354Z,2.57
2018-12-10T18:44:01.962Z,3.40
2018-12-10T18:46:28.426Z,2.17
2018-12-10T18:48:55.099Z,3.03
2018-12-10T18:51:21.581Z,2.67
2018-12-10T18:53:48.173Z,1.90
2018-12-10T18:56:14.663Z,2.30
2018-12-10T18:58:41.389Z,1.70
2018-12-10T19:01:08.686Z,2.13
2018-12-10T19:03:36.398Z,3.63
2018-12-10T19:06:02.900Z,3.40
2018-12-10T19:08:29.409Z,2.40
2018-12-10T19:10:55.939Z,1.97
2018-12-10T19:13:22.432Z,1.77
2018-12-10T19:15:49.042Z,2.53
2018-12-10T19:18:15.576Z,2.20
2018-12-10T19:20:42.102Z,3.47
2018-12-10T19:23:08.974Z,3.43
2018-12-10T19:25:35.862Z,5.30
2018-12-10T19:28:02.524Z,5.97
2018-12-10T19:30:29.001Z,2.50
2018-12-10T19:32:55.851Z,2.67
2018-12-10T19:35:22.456Z,17.07
2018-12-10T19:37:48.942Z,13.37
2018-12-10T19:40:15.702Z,16.13
2018-12-10T19:42:42.122Z,9.33
2018-12-10T19:45:08.668Z,9.20
2018-12-10T19:47:35.449Z,5.80
2018-12-10T19:50:02.347Z,8.07
2018-12-10T19:52:28.815Z,4.40
2018-12-10T19:54:55.427Z,6.93
2018-12-10T19:57:21.960Z,4.40
2018-12-10T19:59:48.567Z,3.53
2018-12-10T20:02:15.609Z,4.20
2018-12-10T20:04:42.071Z,4.70
2018-12-10T20:07:08.606Z,3.37
2018-12-10T20:09:35.480Z,4.10
2018-12-10T20:12:01.971Z,4.30
2018-12-10T20:14:28.440Z,5.60
2018-12-10T20:16:55.398Z,3.20
2018-12-10T20:19:21.899Z,3.47
2018-12-10T20:21:48.416Z,2.27
2018-12-10T20:24:14.913Z,2.87
2018-12-10T20:26:41.399Z,2.60
2018-12-10T20:29:07.845Z,2.10
2018-12-10T20:31:34.468Z,4.00
2018-12-10T20:34:00.921Z,2.50
2018-12-10T20:36:29.460Z,3.13
2018-12-10T20:38:56.475Z,2.87
2018-12-10T20:41:22.943Z,2.60
2018-12-10T20:43:49.427Z,4.77
2018-12-10T20:46:16.162Z,2.20
2018-12-10T20:48:42.694Z,3.17
2018-12-10T20:51:09.110Z,2.73
2018-12-10T20:53:35.834Z,2.60
2018-12-10T20:56:02.331Z,4.17
2018-12-10T20:58:28.815Z,2.80
2018-12-10T21:00:55.690Z,2.80
2018-12-10T21:03:29.063Z,2.80
2018-12-10T21:06:02.923Z,2.30
2018-12-10T21:08:29.452Z,2.63
2018-12-10T21:10:55.952Z,2.40
2018-12-10T21:13:22.658Z,2.87
2018-12-10T21:15:49.215Z,2.27
2018-12-10T21:18:15.709Z,2.33
2018-12-10T21:20:42.282Z,3.67
2018-12-10T21:23:08.857Z,4.10
2018-12-10T21:25:35.370Z,2.90
2018-12-10T21:28:02.122Z,4.13
2018-12-10T21:30:28.662Z,3.17
2018-12-10T21:32:56.321Z,3.10
2018-12-10T21:35:23.144Z,2.70
2018-12-10T21:37:50.514Z,2.50
2018-12-10T21:40:16.991Z,3.37
2018-12-10T21:42:43.583Z,3.70
2018-12-10T21:45:10.159Z,3.03
2018-12-10T21:47:36.645Z,3.40
2018-12-10T21:50:03.940Z,2.83
2018-12-10T21:52:30.683Z,3.77
2018-12-10T21:54:57.163Z,4.87
2018-12-10T21:57:23.923Z,5.50
2018-12-10T21:59:50.375Z,8.30
2018-12-10T22:02:16.988Z,9.20
2018-12-10T22:04:43.502Z,16.60
2018-12-10T22:07:09.946Z,9.40
2018-12-10T22:09:36.387Z,8.70
2018-12-10T22:12:02.970Z,8.30
2018-12-10T22:14:30.309Z,20.97
2018-12-10T22:16:56.856Z,19.07
2018-12-10T22:19:23.581Z,6.20
2018-12-10T22:21:51.123Z,7.03
2018-12-10T22:24:17.587Z,6.43
2018-12-10T22:26:44.399Z,4.90
2018-12-10T22:29:10.860Z,4.70
2018-12-10T22:31:37.327Z,5.80
2018-12-10T22:34:03.947Z,5.00
2018-12-10T22:36:30.385Z,2.53
2018-12-10T22:38:56.983Z,2.93
2018-12-10T22:41:23.494Z,3.53
2018-12-10T22:43:49.991Z,2.87
2018-12-10T22:46:16.486Z,3.70
2018-12-10T22:48:43.140Z,2.83
2018-12-10T22:51:09.670Z,3.70
2018-12-10T22:53:36.619Z,3.87
2018-12-10T22:56:03.378Z,3.10
2018-12-10T22:58:29.865Z,4.77
2018-12-10T23:00:56.314Z,5.00
2018-12-10T23:03:22.794Z,8.50
2018-12-10T23:05:50.247Z,5.23
2018-12-10T23:08:16.688Z,6.73
2018-12-10T23:10:43.234Z,5.77
2018-12-10T23:13:09.795Z,5.40
2018-12-10T23:15:36.351Z,4.00
2018-12-10T23:18:03.156Z,2.90
2018-12-10T23:20:29.606Z,3.40
2018-12-10T23:22:56.036Z,3.47
2018-12-10T23:25:22.903Z,2.77
2018-12-10T23:27:49.603Z,3.23
2018-12-10T23:30:16.038Z,2.80
2018-12-10T23:32:42.529Z,3.83
2018-12-10T23:35:09.199Z,3.13
2018-12-10T23:37:35.647Z,3.63
2018-12-10T23:40:02.348Z,3.40
2018-12-10T23:42:28.836Z,3.67
2018-12-10T23:44:55.374Z,3.40
2018-12-10T23:47:21.863Z,3.60
2018-12-10T23:49:48.350Z,4.10
2018-12-10T23:52:14.778Z,4.03
2018-12-10T23:54:41.543Z,4.83
2018-12-10T23:57:08.183Z,4.97
2018-12-10T23:59:34.658Z,4.33
